Climatologie pour Saint-Brevin les Pins
Jour • Résumé pour janvier 23, 2017 Système :  Métrique    Anglais   Mixte
« - 1 jour
+ 1 jour »
Jour Semaine Mois Année Personnalisé
  Maximum : Minimum : Moyenne :
Température sous abri : 8.6 °C -2.8 °C 1.5 °C
Point de rosée : -1.3 °C -5.0 °C -3.1 °C
Humidité : 90 % 47 % 73 %
Vitesse du vent : 16.1 km/h 0.0 km/h 4.1 km/h
Rafale : 17.7 km/h - -
Direction :- - ENE
Pression : 1027.7 hPa 1025.3 hPa -
Précipitations : 0.0 mm    
Historical Graphs
 
 
Tableau de données pour janvier 23, 2017
Heure Tempé Pt rosée Pression Vent Vitesse Rafale Humidité Taux pluie (/hr) Soleil
00:00 -1.1 °C -2.9 °C 1025.6 hPa NE 3.2 km/h 8.0 km/h 87 % 0.0 mm 0 W/m2
00:05 -0.8 °C -2.5 °C 1025.6 hPa NNE 4.8 km/h 9.7 km/h 88 % 0.0 mm 0 W/m2
00:10 -0.9 °C -2.8 °C 1025.6 hPa NE 3.2 km/h 9.7 km/h 87 % 0.0 mm 0 W/m2
00:15 -0.8 °C -2.5 °C 1025.6 hPa NE 4.8 km/h 9.7 km/h 88 % 0.0 mm 0 W/m2
00:20 -0.6 °C -2.4 °C 1025.6 hPa NE 8.0 km/h 9.7 km/h 88 % 0.0 mm 0 W/m2
00:25 -0.4 °C -2.3 °C 1025.6 hPa NNE 4.8 km/h 11.3 km/h 87 % 0.0 mm 0 W/m2
00:30 -0.3 °C -2.2 °C 1025.6 hPa NNE 4.8 km/h 12.9 km/h 87 % 0.0 mm 0 W/m2
00:35 0.2 °C -2.1 °C 1025.6 hPa NE 8.0 km/h 12.9 km/h 85 % 0.0 mm 0 W/m2
00:40 0.4 °C -1.9 °C 1025.6 hPa NNE 6.4 km/h 12.9 km/h 84 % 0.0 mm 0 W/m2
00:45 0.4 °C -2.1 °C 1025.6 hPa Calm   9.7 km/h 83 % 0.0 mm 0 W/m2
00:50 0.4 °C -2.1 °C 1025.6 hPa NE 4.8 km/h 8.0 km/h 83 % 0.0 mm 0 W/m2
00:55 0.4 °C -2.1 °C 1025.6 hPa NE 1.6 km/h 8.0 km/h 83 % 0.0 mm 0 W/m2
01:00 0.3 °C -2.2 °C 1025.6 hPa Calm   8.0 km/h 83 % 0.0 mm 0 W/m2
01:05 0.4 °C -2.3 °C 1025.6 hPa ENE 4.8 km/h 8.0 km/h 82 % 0.0 mm 0 W/m2
01:10 0.6 °C -2.2 °C 1025.6 hPa ENE 3.2 km/h 8.0 km/h 82 % 0.0 mm 0 W/m2
01:15 0.7 °C -2.2 °C 1025.6 hPa ENE 4.8 km/h 6.4 km/h 81 % 0.0 mm 0 W/m2
01:20 0.7 °C -2.2 °C 1025.6 hPa East 4.8 km/h 8.0 km/h 81 % 0.0 mm 0 W/m2
01:25 0.7 °C -2.3 °C 1025.6 hPa ENE 3.2 km/h 8.0 km/h 80 % 0.0 mm 0 W/m2
01:30 0.7 °C -2.4 °C 1025.6 hPa ENE 3.2 km/h 6.4 km/h 80 % 0.0 mm 0 W/m2
01:35 0.7 °C -2.3 °C 1025.6 hPa East 3.2 km/h 8.0 km/h 80 % 0.0 mm 0 W/m2
01:40 0.7 °C -2.5 °C 1025.6 hPa ENE 3.2 km/h 8.0 km/h 79 % 0.0 mm 0 W/m2
01:45 0.5 °C -2.6 °C 1025.6 hPa NE 4.8 km/h 8.0 km/h 80 % 0.0 mm 0 W/m2
01:50 0.1 °C -2.8 °C 1025.6 hPa Calm   6.4 km/h 81 % 0.0 mm 0 W/m2
01:55 -0.3 °C -3.0 °C 1025.6 hPa NE 1.6 km/h 6.4 km/h 82 % 0.0 mm 0 W/m2
02:00 -0.5 °C -3.0 °C 1025.6 hPa NE 1.6 km/h 6.4 km/h 83 % 0.0 mm 0 W/m2
02:05 -0.6 °C -3.1 °C 1025.6 hPa ENE 1.6 km/h 12.9 km/h 83 % 0.0 mm 0 W/m2
02:10 -0.3 °C -2.8 °C 1025.6 hPa NE 3.2 km/h 12.9 km/h 83 % 0.0 mm 0 W/m2
02:15 -0.3 °C -2.8 °C 1025.6 hPa NE 6.4 km/h 9.7 km/h 83 % 0.0 mm 0 W/m2
02:20 -0.3 °C -2.9 °C 1025.6 hPa NE 3.2 km/h 8.0 km/h 83 % 0.0 mm 0 W/m2
02:25 -0.6 °C -3.1 °C 1025.6 hPa NE 6.4 km/h 8.0 km/h 83 % 0.0 mm 0 W/m2
02:30 -0.6 °C -2.9 °C 1025.6 hPa NE 3.2 km/h 8.0 km/h 84 % 0.0 mm 0 W/m2
02:35 -0.7 °C -3.1 °C 1025.3 hPa NNE 3.2 km/h 11.3 km/h 84 % 0.0 mm 0 W/m2
02:40 -0.7 °C -2.9 °C 1025.3 hPa NE 3.2 km/h 11.3 km/h 85 % 0.0 mm 0 W/m2
02:45 -0.4 °C -2.8 °C 1025.3 hPa ENE 6.4 km/h 11.3 km/h 84 % 0.0 mm 0 W/m2
02:50 -0.4 °C -2.8 °C 1025.3 hPa NE 3.2 km/h 9.7 km/h 84 % 0.0 mm 0 W/m2
02:55 -0.4 °C -2.8 °C 1025.3 hPa ENE 4.8 km/h 9.7 km/h 84 % 0.0 mm 0 W/m2
03:00 -0.5 °C -2.9 °C 1025.3 hPa NE 6.4 km/h 9.7 km/h 84 % 0.0 mm 0 W/m2
03:05 -0.4 °C -2.8 °C 1025.3 hPa NE 8.0 km/h 9.7 km/h 84 % 0.0 mm 0 W/m2
03:10 -0.2 °C -2.6 °C 1025.3 hPa NE 6.4 km/h 9.7 km/h 84 % 0.0 mm 0 W/m2
03:15 -0.2 °C -2.5 °C 1025.6 hPa East 8.0 km/h 9.7 km/h 84 % 0.0 mm 0 W/m2
03:20 -0.1 °C -2.4 °C 1025.6 hPa NE 4.8 km/h 9.7 km/h 84 % 0.0 mm 0 W/m2
03:25 0.2 °C -2.4 °C 1025.6 hPa ENE 3.2 km/h 9.7 km/h 83 % 0.0 mm 0 W/m2
03:35 0.2 °C -2.5 °C 1025.6 hPa NE 6.4 km/h 12.9 km/h 82 % 0.0 mm 0 W/m2
03:40 0.2 °C -2.5 °C 1025.6 hPa NE 6.4 km/h 14.5 km/h 82 % 0.0 mm 0 W/m2
03:45 0.1 °C -2.6 °C 1025.6 hPa ENE 4.8 km/h 14.5 km/h 82 % 0.0 mm 0 W/m2
03:50 -0.2 °C -2.8 °C 1025.6 hPa NE 6.4 km/h 11.3 km/h 83 % 0.0 mm 0 W/m2
03:55 -0.3 °C -2.7 °C 1025.6 hPa NE 6.4 km/h 14.5 km/h 84 % 0.0 mm 0 W/m2
04:00 -0.3 °C -2.8 °C 1025.6 hPa NE 9.7 km/h 14.5 km/h 83 % 0.0 mm 0 W/m2
04:05 -0.2 °C -2.8 °C 1025.6 hPa ENE 4.8 km/h 14.5 km/h 83 % 0.0 mm 0 W/m2
04:10 -0.1 °C -2.8 °C 1025.6 hPa NE 3.2 km/h 11.3 km/h 82 % 0.0 mm 0 W/m2
04:15 -0.1 °C -3.0 °C 1025.6 hPa Calm   11.3 km/h 81 % 0.0 mm 0 W/m2
04:20 -0.1 °C -2.9 °C 1025.6 hPa ENE 4.8 km/h 12.9 km/h 81 % 0.0 mm 0 W/m2
04:25 -0.1 °C -3.1 °C 1025.6 hPa ENE 4.8 km/h 12.9 km/h 80 % 0.0 mm 0 W/m2
04:30 -0.1 °C -3.1 °C 1025.3 hPa ENE 6.4 km/h 12.9 km/h 80 % 0.0 mm 0 W/m2
04:35 -0.2 °C -3.2 °C 1025.3 hPa NE 8.0 km/h 12.9 km/h 80 % 0.0 mm 0 W/m2
04:40 -0.1 °C -3.1 °C 1025.3 hPa ENE 4.8 km/h 11.3 km/h 80 % 0.0 mm 0 W/m2
04:45 -0.2 °C -3.1 °C 1025.6 hPa NE 1.6 km/h 11.3 km/h 81 % 0.0 mm 0 W/m2
04:50 -0.2 °C -3.0 °C 1025.6 hPa NE 3.2 km/h 12.9 km/h 81 % 0.0 mm 0 W/m2
04:55 0.1 °C -2.8 °C 1025.6 hPa NE 8.0 km/h 14.5 km/h 81 % 0.0 mm 0 W/m2
05:00 0.4 °C -2.7 °C 1025.6 hPa ENE 12.9 km/h 14.5 km/h 80 % 0.0 mm 0 W/m2
05:05 0.6 °C -2.8 °C 1025.6 hPa ENE 6.4 km/h 12.9 km/h 78 % 0.0 mm 0 W/m2
05:10 0.7 °C -2.7 °C 1025.6 hPa ENE 16.1 km/h 16.1 km/h 78 % 0.0 mm 0 W/m2
05:15 0.8 °C -3.0 °C 1025.6 hPa ENE 6.4 km/h 16.1 km/h 76 % 0.0 mm 0 W/m2
05:20 0.8 °C -3.0 °C 1025.6 hPa East 4.8 km/h 16.1 km/h 76 % 0.0 mm 0 W/m2
05:25 0.8 °C -3.1 °C 1025.6 hPa NE 1.6 km/h 12.9 km/h 75 % 0.0 mm 0 W/m2
05:30 0.9 °C -3.0 °C 1025.6 hPa ENE 4.8 km/h 11.3 km/h 75 % 0.0 mm 0 W/m2
05:35 0.8 °C -3.1 °C 1025.6 hPa ENE 4.8 km/h 12.9 km/h 75 % 0.0 mm 0 W/m2
05:40 0.8 °C -3.1 °C 1025.6 hPa ENE 4.8 km/h 12.9 km/h 75 % 0.0 mm 0 W/m2
05:45 0.8 °C -3.2 °C 1025.6 hPa ENE 4.8 km/h 11.3 km/h 75 % 0.0 mm 0 W/m2
05:50 0.7 °C -3.1 °C 1025.6 hPa East 6.4 km/h 9.7 km/h 76 % 0.0 mm 0 W/m2
05:55 0.5 °C -3.2 °C 1025.6 hPa ENE 3.2 km/h 8.0 km/h 76 % 0.0 mm 0 W/m2
06:00 0.4 °C -3.4 °C 1025.6 hPa East 4.8 km/h 9.7 km/h 76 % 0.0 mm 0 W/m2
06:05 0.1 °C -3.5 °C 1025.6 hPa ENE 4.8 km/h 11.3 km/h 77 % 0.0 mm 0 W/m2
06:15 -0.3 °C -3.9 °C 1025.3 hPa ENE 4.8 km/h 12.9 km/h 77 % 0.0 mm 0 W/m2
06:20 -0.3 °C -3.8 °C 1025.3 hPa ENE 3.2 km/h 12.9 km/h 77 % 0.0 mm 0 W/m2
06:25 -0.3 °C -3.8 °C 1025.3 hPa ENE 8.0 km/h 11.3 km/h 77 % 0.0 mm 0 W/m2
06:30 -0.3 °C -4.0 °C 1025.3 hPa ENE 3.2 km/h 11.3 km/h 76 % 0.0 mm 0 W/m2
06:35 -0.3 °C -4.0 °C 1025.6 hPa ENE 4.8 km/h 11.3 km/h 76 % 0.0 mm 0 W/m2
06:40 -0.1 °C -4.1 °C 1025.6 hPa East 3.2 km/h 8.0 km/h 74 % 0.0 mm 0 W/m2
06:45 -0.2 °C -4.2 °C 1025.6 hPa ENE 4.8 km/h 11.3 km/h 74 % 0.0 mm 0 W/m2
06:50 -0.4 °C -4.5 °C 1025.6 hPa NE 3.2 km/h 11.3 km/h 74 % 0.0 mm 0 W/m2
06:55 -0.7 °C -4.4 °C 1025.6 hPa ENE 1.6 km/h 8.0 km/h 76 % 0.0 mm 0 W/m2
07:00 -0.5 °C -4.4 °C 1025.6 hPa ENE 1.6 km/h 8.0 km/h 75 % 0.0 mm 0 W/m2
07:05 -0.8 °C -4.5 °C 1025.6 hPa ENE 3.2 km/h 11.3 km/h 76 % 0.0 mm 0 W/m2
07:10 -1.0 °C -4.7 °C 1025.6 hPa ENE 3.2 km/h 11.3 km/h 76 % 0.0 mm 0 W/m2
07:15 -1.3 °C -4.8 °C 1025.6 hPa Calm   11.3 km/h 77 % 0.0 mm 0 W/m2
07:20 -1.5 °C -4.8 °C 1025.6 hPa Calm   11.3 km/h 78 % 0.0 mm 0 W/m2
07:25 -1.9 °C -5.0 °C 1026.0 hPa Calm   6.4 km/h 79 % 0.0 mm 0 W/m2
07:30 -1.9 °C -4.9 °C 1026.0 hPa NE 3.2 km/h 4.8 km/h 80 % 0.0 mm 0 W/m2
07:35 -2.0 °C -5.0 °C 1026.0 hPa NE 1.6 km/h 4.8 km/h 80 % 0.0 mm 0 W/m2
07:40 -1.8 °C -4.6 °C 1026.0 hPa ENE 3.2 km/h 6.4 km/h 81 % 0.0 mm 0 W/m2
07:45 -1.4 °C -4.6 °C 1026.0 hPa ENE 3.2 km/h 11.3 km/h 79 % 0.0 mm 0 W/m2
07:50 -1.4 °C -4.6 °C 1026.0 hPa NE 1.6 km/h 11.3 km/h 79 % 0.0 mm 0 W/m2
07:55 -1.2 °C -4.5 °C 1026.0 hPa ENE 4.8 km/h 11.3 km/h 78 % 0.0 mm 0 W/m2
08:00 -0.8 °C -4.3 °C 1026.0 hPa East 8.0 km/h 11.3 km/h 77 % 0.0 mm 0 W/m2
08:05 -0.5 °C -4.4 °C 1026.0 hPa ENE 4.8 km/h 11.3 km/h 75 % 0.0 mm 0 W/m2
08:10 -0.3 °C -4.4 °C 1026.0 hPa ENE 6.4 km/h 12.9 km/h 74 % 0.0 mm 0 W/m2
08:15 -0.4 °C -4.5 °C 1026.0 hPa ENE 3.2 km/h 12.9 km/h 74 % 0.0 mm 0 W/m2
08:25 -0.2 °C -4.6 °C 1026.0 hPa ENE 4.8 km/h 12.9 km/h 72 % 0.0 mm 0 W/m2
08:30 -0.4 °C -4.6 °C 1026.3 hPa ENE 4.8 km/h 12.9 km/h 73 % 0.0 mm 0 W/m2
08:35 -0.7 °C -4.8 °C 1026.3 hPa ENE 4.8 km/h 12.9 km/h 74 % 0.0 mm 0 W/m2
08:40 -0.8 °C -4.7 °C 1026.3 hPa ENE 1.6 km/h 12.9 km/h 75 % 0.0 mm 0 W/m2
08:45 -0.8 °C -4.7 °C 1026.3 hPa East 8.0 km/h 12.9 km/h 75 % 0.0 mm 0 W/m2
08:50 -0.6 °C -4.6 °C 1026.3 hPa ENE 8.0 km/h 12.9 km/h 74 % 0.0 mm 5 W/m2
08:55 -0.6 °C -4.6 °C 1026.3 hPa ENE 8.0 km/h 12.9 km/h 74 % 0.0 mm 5 W/m2
09:00 -0.4 °C -4.7 °C 1026.3 hPa NE 3.2 km/h 12.9 km/h 73 % 0.0 mm 7 W/m2
09:05 -0.7 °C -4.7 °C 1026.6 hPa NE 1.6 km/h 12.9 km/h 74 % 0.0 mm 9 W/m2
09:10 -0.8 °C -4.8 °C 1026.6 hPa NE 3.2 km/h 12.9 km/h 74 % 0.0 mm 11 W/m2
09:15 -0.7 °C -4.7 °C 1026.6 hPa NE 8.0 km/h 12.9 km/h 74 % 0.0 mm 12 W/m2
09:20 -0.8 °C -4.7 °C 1026.6 hPa NE 9.7 km/h 12.9 km/h 75 % 0.0 mm 14 W/m2
09:25 -0.6 °C -4.6 °C 1026.6 hPa ENE 1.6 km/h 12.9 km/h 74 % 0.0 mm 16 W/m2
09:30 -0.4 °C -4.5 °C 1026.6 hPa NE 6.4 km/h 12.9 km/h 74 % 0.0 mm 18 W/m2
09:35 -0.4 °C -4.5 °C 1026.6 hPa ENE 6.4 km/h 12.9 km/h 74 % 0.0 mm 19 W/m2
09:40 -0.2 °C -4.5 °C 1026.6 hPa NNE 4.8 km/h 16.1 km/h 73 % 0.0 mm 19 W/m2
09:45 -0.2 °C -4.4 °C 1027.0 hPa North 8.0 km/h 16.1 km/h 73 % 0.0 mm 21 W/m2
09:50 -0.2 °C -4.4 °C 1027.0 hPa NNE 1.6 km/h 14.5 km/h 73 % 0.0 mm 25 W/m2
09:55 -0.1 °C -4.3 °C 1027.0 hPa NE 4.8 km/h 14.5 km/h 73 % 0.0 mm 28 W/m2
10:00 0.2 °C -4.1 °C 1027.0 hPa NNE 6.4 km/h 14.5 km/h 73 % 0.0 mm 30 W/m2
10:05 0.4 °C -3.7 °C 1027.0 hPa NE 3.2 km/h 8.0 km/h 74 % 0.0 mm 30 W/m2
10:10 0.6 °C -3.5 °C 1027.0 hPa NE 1.6 km/h 6.4 km/h 74 % 0.0 mm 32 W/m2
10:15 0.9 °C -3.4 °C 1027.0 hPa Calm   11.3 km/h 73 % 0.0 mm 32 W/m2
10:20 1.1 °C -3.6 °C 1027.0 hPa ENE 4.8 km/h 11.3 km/h 71 % 0.0 mm 33 W/m2
10:25 1.2 °C -3.5 °C 1027.0 hPa NE 6.4 km/h 11.3 km/h 71 % 0.0 mm 77 W/m2
10:30 1.3 °C -3.4 °C 1027.0 hPa NE 9.7 km/h 12.9 km/h 71 % 0.0 mm 185 W/m2
10:35 1.7 °C -3.2 °C 1027.0 hPa ENE 3.2 km/h 12.9 km/h 70 % 0.0 mm 195 W/m2
10:40 2.0 °C -3.3 °C 1027.3 hPa North 3.2 km/h 14.5 km/h 68 % 0.0 mm 206 W/m2
10:50 2.5 °C -3.4 °C 1027.3 hPa Calm   11.3 km/h 65 % 0.0 mm 230 W/m2
10:55 2.5 °C -3.6 °C 1027.3 hPa NNE 6.4 km/h 11.3 km/h 64 % 0.0 mm 244 W/m2
11:00 2.7 °C -3.5 °C 1027.3 hPa ENE 4.8 km/h 11.3 km/h 64 % 0.0 mm 258 W/m2
11:05 2.9 °C -3.3 °C 1027.3 hPa NNE 6.4 km/h 12.9 km/h 64 % 0.0 mm 109 W/m2
11:10 2.5 °C -3.6 °C 1027.3 hPa NE 1.6 km/h 14.5 km/h 64 % 0.0 mm 76 W/m2
11:15 2.2 °C -3.5 °C 1027.3 hPa NE 6.4 km/h 14.5 km/h 66 % 0.0 mm 91 W/m2
11:20 2.3 °C -3.6 °C 1027.3 hPa ENE 4.8 km/h 11.3 km/h 65 % 0.0 mm 95 W/m2
11:25 2.4 °C -3.5 °C 1027.7 hPa ENE 8.0 km/h 12.9 km/h 65 % 0.0 mm 220 W/m2
11:30 2.6 °C -3.3 °C 1027.7 hPa ENE 4.8 km/h 12.9 km/h 65 % 0.0 mm 176 W/m2
11:35 2.8 °C -3.4 °C 1027.7 hPa ENE 3.2 km/h 12.9 km/h 64 % 0.0 mm 279 W/m2
11:40 3.2 °C -2.9 °C 1027.7 hPa ENE 4.8 km/h 11.3 km/h 64 % 0.0 mm 325 W/m2
11:45 3.7 °C -2.5 °C 1027.7 hPa ENE 4.8 km/h 11.3 km/h 64 % 0.0 mm 336 W/m2
11:50 4.1 °C -2.6 °C 1027.7 hPa NE 3.2 km/h 9.7 km/h 62 % 0.0 mm 334 W/m2
11:55 4.2 °C -2.9 °C 1027.7 hPa East 8.0 km/h 12.9 km/h 60 % 0.0 mm 167 W/m2
12:00 3.9 °C -2.9 °C 1027.7 hPa NE 9.7 km/h 12.9 km/h 61 % 0.0 mm 338 W/m2
12:05 3.9 °C -2.9 °C 1027.7 hPa ENE 8.0 km/h 14.5 km/h 61 % 0.0 mm 269 W/m2
12:10 3.9 °C -2.9 °C 1027.7 hPa NE 6.4 km/h 14.5 km/h 61 % 0.0 mm 218 W/m2
12:15 4.2 °C -2.5 °C 1027.3 hPa NE 6.4 km/h 14.5 km/h 62 % 0.0 mm 241 W/m2
12:20 4.6 °C -2.8 °C 1027.3 hPa NE 3.2 km/h 14.5 km/h 59 % 0.0 mm 367 W/m2
12:25 5.1 °C -2.5 °C 1027.3 hPa NE 11.3 km/h 14.5 km/h 58 % 0.0 mm 371 W/m2
12:30 5.3 °C -2.8 °C 1027.3 hPa ENE 6.4 km/h 14.5 km/h 56 % 0.0 mm 376 W/m2
12:35 5.3 °C -2.8 °C 1027.3 hPa NE 11.3 km/h 11.3 km/h 56 % 0.0 mm 376 W/m2
12:40 5.3 °C -3.0 °C 1027.0 hPa NE 11.3 km/h 16.1 km/h 55 % 0.0 mm 374 W/m2
12:45 5.3 °C -2.7 °C 1027.0 hPa East 8.0 km/h 17.7 km/h 56 % 0.0 mm 373 W/m2
12:50 5.3 °C -3.3 °C 1027.0 hPa ENE 12.9 km/h 17.7 km/h 54 % 0.0 mm 374 W/m2
12:55 5.4 °C -3.4 °C 1027.0 hPa ENE 11.3 km/h 17.7 km/h 53 % 0.0 mm 374 W/m2
13:00 5.6 °C -3.0 °C 1027.0 hPa East 9.7 km/h 16.1 km/h 54 % 0.0 mm 374 W/m2
13:05 5.8 °C -3.0 °C 1027.0 hPa ENE 6.4 km/h 16.1 km/h 53 % 0.0 mm 374 W/m2
13:10 5.8 °C -2.8 °C 1027.0 hPa NNE 3.2 km/h 14.5 km/h 54 % 0.0 mm 373 W/m2
13:15 5.8 °C -3.1 °C 1027.0 hPa ESE 8.0 km/h 12.9 km/h 53 % 0.0 mm 371 W/m2
13:20 5.9 °C -2.7 °C 1026.6 hPa ENE 6.4 km/h 12.9 km/h 54 % 0.0 mm 371 W/m2
13:25 5.9 °C -2.7 °C 1026.6 hPa NE 4.8 km/h 12.9 km/h 54 % 0.0 mm 371 W/m2
13:30 6.1 °C -2.5 °C 1026.6 hPa ENE 1.6 km/h 12.9 km/h 54 % 0.0 mm 371 W/m2
13:35 6.3 °C -2.6 °C 1026.6 hPa ENE 11.3 km/h 12.9 km/h 53 % 0.0 mm 369 W/m2
13:40 6.2 °C -2.4 °C 1026.6 hPa East 11.3 km/h 12.9 km/h 54 % 0.0 mm 367 W/m2
13:45 6.4 °C -2.3 °C 1026.6 hPa NNE 6.4 km/h 12.9 km/h 54 % 0.0 mm 366 W/m2
13:50 6.3 °C -2.4 °C 1026.6 hPa NE 3.2 km/h 14.5 km/h 54 % 0.0 mm 364 W/m2
13:55 6.4 °C -2.5 °C 1026.3 hPa ENE 8.0 km/h 14.5 km/h 53 % 0.0 mm 362 W/m2
14:00 6.7 °C -2.0 °C 1026.3 hPa ENE 4.8 km/h 14.5 km/h 54 % 0.0 mm 359 W/m2
14:05 7.0 °C -2.5 °C 1026.3 hPa NE 1.6 km/h 16.1 km/h 51 % 0.0 mm 355 W/m2
14:10 6.9 °C -2.5 °C 1026.3 hPa ENE 14.5 km/h 16.1 km/h 51 % 0.0 mm 352 W/m2
14:15 6.8 °C -2.6 °C 1026.3 hPa East 11.3 km/h 16.1 km/h 51 % 0.0 mm 350 W/m2
14:20 6.9 °C -2.8 °C 1026.3 hPa ENE 11.3 km/h 16.1 km/h 50 % 0.0 mm 345 W/m2
14:25 7.1 °C -2.6 °C 1026.3 hPa ENE 6.4 km/h 16.1 km/h 50 % 0.0 mm 339 W/m2
14:30 7.5 °C -2.5 °C 1026.0 hPa ENE 4.8 km/h 14.5 km/h 49 % 0.0 mm 334 W/m2
14:35 7.7 °C -2.6 °C 1026.0 hPa NE 8.0 km/h 14.5 km/h 48 % 0.0 mm 329 W/m2
14:40 7.6 °C -2.5 °C 1026.0 hPa East 8.0 km/h 16.1 km/h 49 % 0.0 mm 323 W/m2
14:50 8.0 °C -2.4 °C 1026.0 hPa East 4.8 km/h 14.5 km/h 48 % 0.0 mm 309 W/m2
14:55 8.3 °C -1.8 °C 1026.0 hPa ENE 12.9 km/h 14.5 km/h 49 % 0.0 mm 301 W/m2
15:00 8.2 °C -1.9 °C 1026.0 hPa NE 8.0 km/h 14.5 km/h 49 % 0.0 mm 294 W/m2
15:05 8.1 °C -2.6 °C 1026.0 hPa NE 4.8 km/h 17.7 km/h 47 % 0.0 mm 287 W/m2
15:10 8.1 °C -2.0 °C 1026.0 hPa NE 6.4 km/h 17.7 km/h 49 % 0.0 mm 281 W/m2
15:15 8.2 °C -1.3 °C 1026.0 hPa NE 4.8 km/h 14.5 km/h 51 % 0.0 mm 274 W/m2
15:20 8.4 °C -2.0 °C 1026.0 hPa ENE 4.8 km/h 14.5 km/h 48 % 0.0 mm 267 W/m2
15:25 8.5 °C -1.6 °C 1026.0 hPa NE 6.4 km/h 11.3 km/h 49 % 0.0 mm 260 W/m2
15:30 8.5 °C -1.9 °C 1025.6 hPa NE 9.7 km/h 14.5 km/h 48 % 0.0 mm 250 W/m2
15:35 8.4 °C -2.0 °C 1025.6 hPa East 6.4 km/h 14.5 km/h 48 % 0.0 mm 241 W/m2
15:40 8.4 °C -2.3 °C 1025.6 hPa NE 3.2 km/h 14.5 km/h 47 % 0.0 mm 232 W/m2
15:45 8.6 °C -1.5 °C 1026.0 hPa ENE 8.0 km/h 14.5 km/h 49 % 0.0 mm 223 W/m2
15:50 8.6 °C -1.8 °C 1026.0 hPa NNE 8.0 km/h 11.3 km/h 48 % 0.0 mm 216 W/m2
15:55 8.4 °C -2.2 °C 1026.0 hPa NE 9.7 km/h 14.5 km/h 47 % 0.0 mm 207 W/m2
16:00 8.5 °C -1.3 °C 1026.0 hPa ENE 12.9 km/h 14.5 km/h 50 % 0.0 mm 195 W/m2
16:05 8.3 °C -2.1 °C 1026.0 hPa North 4.8 km/h 12.9 km/h 48 % 0.0 mm 185 W/m2
16:10 8.2 °C -2.2 °C 1026.0 hPa NE 6.4 km/h 14.5 km/h 48 % 0.0 mm 172 W/m2
16:15 8.1 °C -2.3 °C 1026.0 hPa NE 9.7 km/h 14.5 km/h 48 % 0.0 mm 160 W/m2
16:20 8.0 °C -2.1 °C 1026.0 hPa NNE 8.0 km/h 14.5 km/h 49 % 0.0 mm 148 W/m2
16:25 8.0 °C -2.1 °C 1026.0 hPa NE 8.0 km/h 12.9 km/h 49 % 0.0 mm 135 W/m2
16:30 7.9 °C -2.1 °C 1026.3 hPa NE 3.2 km/h 16.1 km/h 49 % 0.0 mm 104 W/m2
16:35 7.8 °C -2.3 °C 1026.3 hPa NE 12.9 km/h 16.1 km/h 49 % 0.0 mm 32 W/m2
16:40 7.5 °C -2.3 °C 1026.3 hPa NE 9.7 km/h 14.5 km/h 50 % 0.0 mm 32 W/m2
16:45 7.4 °C -2.6 °C 1026.3 hPa NE 1.6 km/h 14.5 km/h 49 % 0.0 mm 30 W/m2
16:50 7.2 °C -2.5 °C 1026.3 hPa NNE 9.7 km/h 12.9 km/h 50 % 0.0 mm 28 W/m2
16:55 7.1 °C -2.7 °C 1026.3 hPa NE 3.2 km/h 11.3 km/h 50 % 0.0 mm 26 W/m2
17:00 6.9 °C -2.6 °C 1026.3 hPa NE 8.0 km/h 9.7 km/h 51 % 0.0 mm 25 W/m2
17:05 6.8 °C -2.4 °C 1026.3 hPa NE 3.2 km/h 11.3 km/h 52 % 0.0 mm 23 W/m2
17:10 6.6 °C -2.4 °C 1026.3 hPa NNE 6.4 km/h 11.3 km/h 53 % 0.0 mm 21 W/m2
17:15 6.3 °C -2.1 °C 1026.3 hPa NE 4.8 km/h 9.7 km/h 55 % 0.0 mm 19 W/m2
17:20 6.1 °C -2.0 °C 1026.3 hPa NE 4.8 km/h 11.3 km/h 56 % 0.0 mm 18 W/m2
17:25 6.0 °C -2.1 °C 1026.3 hPa NE 3.2 km/h 11.3 km/h 56 % 0.0 mm 16 W/m2
17:30 5.7 °C -2.2 °C 1026.6 hPa NE 4.8 km/h 8.0 km/h 57 % 0.0 mm 14 W/m2
17:35 5.3 °C -2.5 °C 1026.6 hPa NNE 1.6 km/h 8.0 km/h 57 % 0.0 mm 12 W/m2
17:40 4.8 °C -2.5 °C 1026.6 hPa NE 3.2 km/h 8.0 km/h 59 % 0.0 mm 11 W/m2
17:50 4.2 °C -2.5 °C 1026.6 hPa NE 1.6 km/h 4.8 km/h 62 % 0.0 mm 7 W/m2
17:55 3.7 °C -2.7 °C 1027.0 hPa NE 3.2 km/h 4.8 km/h 63 % 0.0 mm 5 W/m2
18:00 3.2 °C -2.8 °C 1027.0 hPa Calm   3.2 km/h 65 % 0.0 mm 0 W/m2
18:05 2.7 °C -2.8 °C 1027.0 hPa Calm   3.2 km/h 67 % 0.0 mm 0 W/m2
18:10 2.4 °C -2.9 °C 1027.0 hPa North 1.6 km/h 6.4 km/h 68 % 0.0 mm 0 W/m2
18:15 2.1 °C -3.0 °C 1027.0 hPa Calm   6.4 km/h 69 % 0.0 mm 0 W/m2
18:20 2.2 °C -2.6 °C 1027.0 hPa Calm   3.2 km/h 71 % 0.0 mm 0 W/m2
18:25 2.1 °C -2.6 °C 1027.0 hPa Calm   3.2 km/h 71 % 0.0 mm 0 W/m2
18:30 1.6 °C -2.9 °C 1027.3 hPa North 1.6 km/h 4.8 km/h 72 % 0.0 mm 0 W/m2
18:40 1.4 °C -2.7 °C 1027.3 hPa Calm   4.8 km/h 74 % 0.0 mm 0 W/m2
18:45 1.4 °C -2.6 °C 1027.3 hPa Calm   3.2 km/h 75 % 0.0 mm 0 W/m2
18:50 1.3 °C -2.6 °C 1027.3 hPa Calm   3.2 km/h 75 % 0.0 mm 0 W/m2
18:55 1.1 °C -2.7 °C 1027.3 hPa Calm   1.6 km/h 76 % 0.0 mm 0 W/m2
19:00 0.8 °C -2.9 °C 1027.3 hPa Calm   1.6 km/h 76 % 0.0 mm 0 W/m2
19:10 0.8 °C -2.8 °C 1027.3 hPa Calm   1.6 km/h 77 % 0.0 mm 0 W/m2
19:15 0.7 °C -2.7 °C 1027.3 hPa Calm     78 % 0.0 mm 0 W/m2
19:20 0.7 °C -2.7 °C 1027.3 hPa Calm     78 % 0.0 mm 0 W/m2
19:25 0.7 °C -2.7 °C 1027.3 hPa Calm     78 % 0.0 mm 0 W/m2
19:30 0.6 °C -2.8 °C 1027.3 hPa Calm     78 % 0.0 mm 0 W/m2
19:35 0.3 °C -2.9 °C 1027.3 hPa Calm     79 % 0.0 mm 0 W/m2
19:40 0.2 °C -2.9 °C 1027.3 hPa Calm     80 % 0.0 mm 0 W/m2
19:45 0.2 °C -2.9 °C 1027.3 hPa Calm     80 % 0.0 mm 0 W/m2
19:50 0.0 °C -2.9 °C 1027.3 hPa Calm     81 % 0.0 mm 0 W/m2
19:55 -0.2 °C -3.0 °C 1027.3 hPa Calm     81 % 0.0 mm 0 W/m2
20:00 -0.3 °C -3.0 °C 1027.3 hPa Calm     82 % 0.0 mm 0 W/m2
20:05 -0.4 °C -3.1 °C 1027.0 hPa Calm     82 % 0.0 mm 0 W/m2
20:10 -0.6 °C -3.3 °C 1027.0 hPa Calm     82 % 0.0 mm 0 W/m2
20:15 -0.7 °C -3.2 °C 1027.0 hPa Calm     83 % 0.0 mm 0 W/m2
20:20 -0.7 °C -3.2 °C 1027.0 hPa Calm     83 % 0.0 mm 0 W/m2
20:25 -0.7 °C -3.2 °C 1027.0 hPa Calm     83 % 0.0 mm 0 W/m2
20:30 -0.9 °C -3.5 °C 1027.0 hPa Calm     83 % 0.0 mm 0 W/m2
20:35 -1.3 °C -3.6 °C 1027.0 hPa Calm     84 % 0.0 mm 0 W/m2
20:40 -1.4 °C -3.6 °C 1027.0 hPa Calm     85 % 0.0 mm 0 W/m2
20:45 -1.6 °C -3.7 °C 1027.0 hPa Calm     85 % 0.0 mm 0 W/m2
20:50 -1.6 °C -3.6 °C 1027.0 hPa Calm     86 % 0.0 mm 0 W/m2
20:55 -1.6 °C -3.6 °C 1027.0 hPa Calm     86 % 0.0 mm 0 W/m2
21:00 -1.7 °C -3.8 °C 1027.0 hPa Calm     86 % 0.0 mm 0 W/m2
21:05 -1.8 °C -3.7 °C 1027.0 hPa Calm     87 % 0.0 mm 0 W/m2
21:10 -1.9 °C -3.8 °C 1027.0 hPa Calm   1.6 km/h 87 % 0.0 mm 0 W/m2
21:15 -1.8 °C -3.7 °C 1027.3 hPa Calm   1.6 km/h 87 % 0.0 mm 0 W/m2
21:20 -1.9 °C -3.8 °C 1027.3 hPa Calm   1.6 km/h 87 % 0.0 mm 0 W/m2
21:25 -1.9 °C -3.8 °C 1027.3 hPa Calm   1.6 km/h 87 % 0.0 mm 0 W/m2
21:30 -2.0 °C -3.7 °C 1027.3 hPa Calm     88 % 0.0 mm 0 W/m2
21:35 -2.1 °C -3.8 °C 1027.3 hPa Calm     88 % 0.0 mm 0 W/m2
21:40 -2.3 °C -4.1 °C 1027.3 hPa Calm   1.6 km/h 88 % 0.0 mm 0 W/m2
21:45 -2.3 °C -3.9 °C 1027.3 hPa North 1.6 km/h 1.6 km/h 89 % 0.0 mm 0 W/m2
21:50 -2.3 °C -3.9 °C 1027.3 hPa Calm   3.2 km/h 89 % 0.0 mm 0 W/m2
21:55 -2.4 °C -4.0 °C 1027.7 hPa Calm   3.2 km/h 89 % 0.0 mm 0 W/m2
22:00 -2.4 °C -4.0 °C 1027.7 hPa North 1.6 km/h 4.8 km/h 89 % 0.0 mm 0 W/m2
22:05 -2.5 °C -4.1 °C 1027.7 hPa NNE 3.2 km/h 6.4 km/h 89 % 0.0 mm 0 W/m2
22:10 -2.3 °C -3.9 °C 1027.7 hPa North 3.2 km/h 6.4 km/h 89 % 0.0 mm 0 W/m2
22:15 -2.2 °C -3.7 °C 1027.7 hPa North 1.6 km/h 6.4 km/h 89 % 0.0 mm 0 W/m2
22:20 -1.9 °C -3.5 °C 1027.7 hPa Calm   4.8 km/h 89 % 0.0 mm 0 W/m2
22:25 -1.8 °C -3.4 °C 1027.7 hPa North 1.6 km/h 4.8 km/h 89 % 0.0 mm 0 W/m2
22:30 -1.7 °C -3.2 °C 1027.7 hPa Calm   3.2 km/h 89 % 0.0 mm 0 W/m2
22:35 -1.5 °C -3.2 °C 1027.7 hPa Calm   3.2 km/h 88 % 0.0 mm 0 W/m2
22:40 -1.4 °C -3.2 °C 1027.7 hPa NNE 1.6 km/h 4.8 km/h 88 % 0.0 mm 0 W/m2
22:45 -1.4 °C -3.2 °C 1027.7 hPa Calm   4.8 km/h 88 % 0.0 mm 0 W/m2
22:50 -1.4 °C -3.1 °C 1027.7 hPa NNE 3.2 km/h 3.2 km/h 88 % 0.0 mm 0 W/m2
22:55 -1.4 °C -3.1 °C 1027.7 hPa Calm   4.8 km/h 88 % 0.0 mm 0 W/m2
23:00 -1.4 °C -3.2 °C 1027.7 hPa Calm   4.8 km/h 88 % 0.0 mm 0 W/m2
23:05 -1.7 °C -3.4 °C 1027.3 hPa Calm   3.2 km/h 88 % 0.0 mm 0 W/m2
23:10 -1.8 °C -3.6 °C 1027.3 hPa Calm   3.2 km/h 88 % 0.0 mm 0 W/m2
23:15 -1.9 °C -3.5 °C 1027.3 hPa Calm     89 % 0.0 mm 0 W/m2
23:20 -2.1 °C -3.6 °C 1027.3 hPa Calm   1.6 km/h 89 % 0.0 mm 0 W/m2
23:25 -2.0 °C -3.6 °C 1027.3 hPa ENE 1.6 km/h 1.6 km/h 89 % 0.0 mm 0 W/m2
23:30 -2.1 °C -3.6 °C 1027.7 hPa ENE 1.6 km/h 3.2 km/h 89 % 0.0 mm 0 W/m2
23:35 -2.2 °C -3.6 °C 1027.7 hPa ENE 1.6 km/h 4.8 km/h 90 % 0.0 mm 0 W/m2
23:40 -2.2 °C -3.6 °C 1027.7 hPa ENE 3.2 km/h 4.8 km/h 90 % 0.0 mm 0 W/m2
23:45 -2.2 °C -3.6 °C 1027.7 hPa Calm   4.8 km/h 90 % 0.0 mm 0 W/m2
23:50 -2.6 °C -4.2 °C 1027.7 hPa Calm   4.8 km/h 89 % 0.0 mm 0 W/m2
23:55 -2.8 °C -4.2 °C 1027.7 hPa Calm   3.2 km/h 90 % 0.0 mm 0 W/m2
Avec l'autorisation de Weather Underground - 1.75 mb